Time;durP1;ratioP1;P1;durP2;ratioP2;P2;SDS_P1;SDS_P2;PMS_P1;PMS_P2;Temp;Humidity;BMP_temperature;BMP_pressure;BME280_temperature;BME280_humidity;BME280_pressure;Samples;Min_cycle;Max_cycle;Signal;HPM_P1;HPM_P2
2022/04/06 00:01:46;;;;;;;13.80;4.85;;;;;;;;;;5009604;28;20137;-82
2022/04/06 00:04:14;;;;;;;13.27;4.80;;;;;;;;;;4990650;28;20054;-82
2022/04/06 00:06:42;;;;;;;11.10;4.60;;;;;;;;;;5012539;28;20054;-83
2022/04/06 00:09:17;;;;;;;12.10;4.90;;;;;;;;;;4990870;28;20061;-82
2022/04/06 00:11:46;;;;;;;9.98;4.35;;;;;;;;;;5014942;28;20049;-83
2022/04/06 00:14:13;;;;;;;12.13;4.68;;;;;;;;;;5008058;28;20054;-83
2022/04/06 00:16:40;;;;;;;16.65;4.95;;;;;;;;;;5007775;28;20085;-82
2022/04/06 00:19:07;;;;;;;10.15;4.40;;;;;;;;;;5007107;28;20129;-83
2022/04/06 00:21:35;;;;;;;13.65;4.45;;;;;;;;;;5010593;28;20260;-83
2022/04/06 00:24:02;;;;;;;11.68;4.53;;;;;;;;;;4992300;28;20100;-83
2022/04/06 00:26:30;;;;;;;14.65;4.75;;;;;;;;;;4992346;28;20505;-83
2022/04/06 00:28:57;;;;;;;14.05;4.43;;;;;;;;;;5012686;28;20057;-83
2022/04/06 00:31:24;;;;;;;16.27;5.53;;;;;;;;;;4984962;28;20144;-81
2022/04/06 00:33:52;;;;;;;13.27;5.18;;;;;;;;;;5000630;28;20486;-83
2022/04/06 00:36:21;;;;;;;15.48;6.20;;;;;;;;;;5001535;28;20545;-86
2022/04/06 00:38:49;;;;;;;16.58;5.75;;;;;;;;;;4994199;28;20184;-85
2022/04/06 00:41:16;;;;;;;17.05;5.53;;;;;;;;;;5003899;28;20172;-86
2022/04/06 00:43:44;;;;;;;14.05;4.75;;;;;;;;;;5001002;28;20057;-85
2022/04/06 00:46:11;;;;;;;12.48;5.30;;;;;;;;;;5006941;28;20104;-85
2022/04/06 00:48:42;;;;;;;11.10;4.40;;;;;;;;;;5006645;28;21101;-84
2022/04/06 00:51:11;;;;;;;13.25;4.78;;;;;;;;;;5009231;28;20458;-85
2022/04/06 00:53:39;;;;;;;13.15;4.55;;;;;;;;;;4996344;28;20597;-84
2022/04/06 00:56:06;;;;;;;14.77;4.75;;;;;;;;;;5011540;28;20100;-84
2022/04/06 00:58:33;;;;;;;15.30;5.07;;;;;;;;;;5004020;28;20132;-84
2022/04/06 01:01:01;;;;;;;16.42;4.93;;;;;;;;;;5009540;28;20137;-84
2022/04/06 01:03:28;;;;;;;10.95;4.13;;;;;;;;;;5008843;28;21289;-85
2022/04/06 01:05:56;;;;;;;10.52;4.30;;;;;;;;;;5005066;28;20049;-84
2022/04/06 01:08:24;;;;;;;9.98;4.10;;;;;;;;;;4987504;28;20537;-84
2022/04/06 01:10:51;;;;;;;15.75;3.88;;;;;;;;;;5006221;28;20132;-84
2022/04/06 01:13:19;;;;;;;8.75;4.15;;;;;;;;;;5006402;28;20616;-83
2022/04/06 01:15:50;;;;;;;11.25;4.00;;;;;;;;;;5012528;28;20068;-83
2022/04/06 01:18:17;;;;;;;10.57;4.18;;;;;;;;;;5000075;28;21059;-81
2022/04/06 01:20:45;;;;;;;7.32;3.97;;;;;;;;;;5001525;28;20062;-83
2022/04/06 01:23:15;;;;;;;10.52;4.20;;;;;;;;;;4989753;28;20125;-83
2022/04/06 01:25:44;;;;;;;7.72;4.00;;;;;;;;;;5011836;23;20076;-83
2022/04/06 01:28:15;;;;;;;9.07;4.13;;;;;;;;;;5026509;28;21389;-84
2022/04/06 01:30:43;;;;;;;12.80;4.47;;;;;;;;;;5037938;28;20398;-85
2022/04/06 01:33:14;;;;;;;13.40;4.93;;;;;;;;;;5041046;28;20106;-85
2022/04/06 01:35:42;;;;;;;10.35;4.35;;;;;;;;;;5029316;28;20107;-85
2022/04/06 01:38:12;;;;;;;12.43;5.20;;;;;;;;;;5029750;28;20056;-84
2022/04/06 01:40:40;;;;;;;10.07;4.25;;;;;;;;;;5046746;28;20137;-84
2022/04/06 01:43:09;;;;;;;8.38;4.50;;;;;;;;;;5040169;28;20648;-84
2022/04/06 01:45:37;;;;;;;13.93;4.75;;;;;;;;;;5029372;28;20099;-83
2022/04/06 01:48:05;;;;;;;11.48;4.47;;;;;;;;;;5051640;28;20059;-82
2022/04/06 01:53:19;;;;;;;16.35;5.97;;;;;;;;;;5052367;28;20107;-83
2022/04/06 01:55:47;;;;;;;15.95;7.00;;;;;;;;;;5028754;28;20072;-83
2022/04/06 01:58:14;;;;;;;14.38;6.95;;;;;;;;;;5046510;28;20092;-83
2022/04/06 02:00:43;;;;;;;15.10;6.28;;;;;;;;;;5037849;28;20128;-82
2022/04/06 02:03:14;;;;;;;20.27;6.82;;;;;;;;;;5045432;28;20098;-83
2022/04/06 02:05:41;;;;;;;15.70;6.13;;;;;;;;;;5031486;28;20069;-82
2022/04/06 02:08:08;;;;;;;15.75;6.47;;;;;;;;;;5046979;28;20049;-83
2022/04/06 02:10:35;;;;;;;17.48;7.50;;;;;;;;;;5025982;28;20164;-84
2022/04/06 02:13:03;;;;;;;15.15;6.40;;;;;;;;;;5038867;28;20068;-77
2022/04/06 02:15:30;;;;;;;19.35;6.25;;;;;;;;;;5027768;28;20425;-76
2022/04/06 02:17:58;;;;;;;14.30;5.90;;;;;;;;;;5017547;28;20059;-77
2022/04/06 02:20:25;;;;;;;13.23;6.32;;;;;;;;;;5022623;28;20076;-77
2022/04/06 02:22:52;;;;;;;16.00;6.22;;;;;;;;;;5030223;28;20870;-76
2022/04/06 02:25:19;;;;;;;14.05;5.90;;;;;;;;;;5022875;28;20158;-77
2022/04/06 02:27:51;;;;;;;15.80;6.47;;;;;;;;;;5004054;28;20175;-77
2022/04/06 02:30:18;;;;;;;16.58;5.90;;;;;;;;;;5030975;28;20159;-77
2022/04/06 02:32:46;;;;;;;15.13;5.57;;;;;;;;;;5042114;28;20097;-77
2022/04/06 02:35:13;;;;;;;17.02;6.10;;;;;;;;;;5007014;28;20152;-78
2022/04/06 02:37:43;;;;;;;17.60;5.50;;;;;;;;;;5024824;28;20165;-77
2022/04/06 02:40:12;;;;;;;23.40;8.13;;;;;;;;;;5019594;28;20048;-77
2022/04/06 02:42:39;;;;;;;15.50;6.22;;;;;;;;;;5017197;28;21767;-77
2022/04/06 02:45:06;;;;;;;12.63;5.40;;;;;;;;;;5027505;28;20188;-76
2022/04/06 02:47:34;;;;;;;14.57;6.03;;;;;;;;;;5030241;28;20051;-76
2022/04/06 02:50:01;;;;;;;13.93;5.53;;;;;;;;;;5022255;28;20131;-76
2022/04/06 02:52:29;;;;;;;10.25;5.15;;;;;;;;;;5039486;28;20102;-78
2022/04/06 02:54:57;;;;;;;16.77;5.35;;;;;;;;;;5029419;28;20049;-83
2022/04/06 02:57:26;;;;;;;15.05;5.25;;;;;;;;;;5026898;28;20107;-83
2022/04/06 02:59:55;;;;;;;14.38;5.57;;;;;;;;;;5027492;28;20179;-83
2022/04/06 03:02:23;;;;;;;11.90;4.65;;;;;;;;;;5035876;28;20129;-84
2022/04/06 03:04:51;;;;;;;12.73;4.97;;;;;;;;;;5043375;28;20077;-84
2022/04/06 03:07:19;;;;;;;12.23;5.32;;;;;;;;;;5046063;28;20560;-84
2022/04/06 03:09:47;;;;;;;15.27;5.22;;;;;;;;;;5043553;28;20041;-83
2022/04/06 03:12:15;;;;;;;15.88;5.35;;;;;;;;;;5028424;28;20080;-83
2022/04/06 03:18:06;;;;;;;14.68;5.10;;;;;;;;;;5034222;22;20056;-82
2022/04/06 03:20:34;;;;;;;11.82;5.53;;;;;;;;;;5021447;28;20104;-77
2022/04/06 03:23:03;;;;;;;11.95;5.00;;;;;;;;;;5033564;28;20052;-77
2022/04/06 03:25:30;;;;;;;11.20;4.90;;;;;;;;;;5016612;28;20140;-77
2022/04/06 03:27:57;;;;;;;13.25;4.90;;;;;;;;;;5014910;28;20842;-76
2022/04/06 03:30:24;;;;;;;14.35;5.30;;;;;;;;;;5015997;28;20136;-77
2022/04/06 03:32:52;;;;;;;22.33;4.85;;;;;;;;;;5016054;28;20073;-77
2022/04/06 03:35:19;;;;;;;20.20;5.20;;;;;;;;;;5024088;28;20144;-77
2022/04/06 03:37:46;;;;;;;17.55;5.90;;;;;;;;;;5022877;28;20136;-77
2022/04/06 03:40:13;;;;;;;18.80;5.10;;;;;;;;;;5002249;28;20208;-77
2022/04/06 03:42:40;;;;;;;9.63;4.07;;;;;;;;;;5016362;28;20159;-78
2022/04/06 03:45:08;;;;;;;12.18;4.97;;;;;;;;;;5016251;28;20721;-77
2022/04/06 03:47:36;;;;;;;13.25;4.82;;;;;;;;;;5025054;28;20049;-78
2022/04/06 03:50:04;;;;;;;15.73;5.45;;;;;;;;;;5017217;28;20145;-78
2022/04/06 03:52:32;;;;;;;17.83;5.22;;;;;;;;;;5016589;28;20194;-78
2022/04/06 03:54:59;;;;;;;13.85;5.13;;;;;;;;;;4997577;28;20788;-78
2022/04/06 03:57:26;;;;;;;18.73;5.82;;;;;;;;;;5002187;28;20168;-78
2022/04/06 03:59:54;;;;;;;14.27;5.70;;;;;;;;;;4997557;28;20049;-78
2022/04/06 04:02:21;;;;;;;14.80;5.55;;;;;;;;;;5014195;28;20187;-77
2022/04/06 04:04:48;;;;;;;14.98;5.78;;;;;;;;;;5016694;28;20632;-77
2022/04/06 04:07:22;;;;;;;16.30;5.70;;;;;;;;;;5011954;28;20053;-77
2022/04/06 04:09:50;;;;;;;19.25;5.93;;;;;;;;;;5014763;28;20068;-78
2022/04/06 04:12:17;;;;;;;13.98;5.50;;;;;;;;;;5016446;28;21122;-78
2022/04/06 04:14:46;;;;;;;11.82;5.40;;;;;;;;;;5012917;28;20060;-77
2022/04/06 04:17:13;;;;;;;15.05;5.35;;;;;;;;;;5002992;28;20057;-77
2022/04/06 04:19:40;;;;;;;15.00;5.53;;;;;;;;;;5010645;28;20059;-77
2022/04/06 04:25:35;;;;;;;15.10;5.75;;;;;;;;;;5033620;28;20565;-78
2022/04/06 04:28:03;;;;;;;15.57;5.75;;;;;;;;;;5041196;28;20134;-78
2022/04/06 04:30:33;;;;;;;23.80;6.88;;;;;;;;;;5029732;28;20061;-77
2022/04/06 04:33:00;;;;;;;25.55;7.35;;;;;;;;;;5018191;28;20679;-77
2022/04/06 04:35:28;;;;;;;30.63;7.57;;;;;;;;;;5034240;28;20154;-77
2022/04/06 04:37:56;;;;;;;21.90;7.38;;;;;;;;;;5039097;28;20068;-77
2022/04/06 04:40:23;;;;;;;34.10;7.80;;;;;;;;;;5027949;28;20045;-78
2022/04/06 04:42:51;;;;;;;35.92;8.85;;;;;;;;;;5031809;28;20225;-78
2022/04/06 04:45:18;;;;;;;27.52;8.30;;;;;;;;;;5033249;28;20106;-78
2022/04/06 04:47:45;;;;;;;33.90;8.95;;;;;;;;;;5029904;28;20059;-78
2022/04/06 04:53:35;;;;;;;26.85;9.73;;;;;;;;;;5051335;23;21347;-78
2022/04/06 04:56:03;;;;;;;31.15;10.48;;;;;;;;;;5022525;28;20301;-77
2022/04/06 04:58:30;;;;;;;29.08;10.85;;;;;;;;;;5059985;28;20819;-77
2022/04/06 05:00:57;;;;;;;29.23;10.73;;;;;;;;;;5041128;28;20488;-77
2022/04/06 05:03:24;;;;;;;30.10;11.70;;;;;;;;;;5048717;28;20049;-79
2022/04/06 05:05:53;;;;;;;30.50;9.73;;;;;;;;;;5040169;28;20048;-77
2022/04/06 05:08:25;;;;;;;37.42;11.52;;;;;;;;;;5049141;28;20044;-75
2022/04/06 05:10:52;;;;;;;23.70;9.82;;;;;;;;;;5027068;28;20048;-77
2022/04/06 05:13:20;;;;;;;23.95;9.98;;;;;;;;;;5032243;28;20068;-83
2022/04/06 05:15:49;;;;;;;24.95;9.27;;;;;;;;;;5041097;28;20053;-82
2022/04/06 05:18:16;;;;;;;24.80;9.80;;;;;;;;;;5044822;28;20604;-83
2022/04/06 05:20:44;;;;;;;21.33;9.38;;;;;;;;;;5049845;28;20131;-82
2022/04/06 05:23:11;;;;;;;23.50;9.43;;;;;;;;;;5041740;28;20058;-79
2022/04/06 05:25:38;;;;;;;18.58;9.27;;;;;;;;;;5024483;28;20036;-79
2022/04/06 05:28:06;;;;;;;22.85;9.30;;;;;;;;;;5024269;28;20080;-80
2022/04/06 05:30:33;;;;;;;21.08;8.57;;;;;;;;;;5037135;28;20092;-79
2022/04/06 05:33:01;;;;;;;23.35;10.30;;;;;;;;;;5029086;28;20059;-80
2022/04/06 05:35:28;;;;;;;17.25;8.55;;;;;;;;;;5026305;28;20137;-81
2022/04/06 05:37:57;;;;;;;18.75;8.85;;;;;;;;;;5007982;28;20151;-79
2022/04/06 05:40:24;;;;;;;20.88;8.75;;;;;;;;;;5054486;28;20114;-78
2022/04/06 05:42:51;;;;;;;22.67;9.85;;;;;;;;;;5041604;28;20165;-78
2022/04/06 05:45:21;;;;;;;24.27;9.25;;;;;;;;;;5043568;28;20163;-76
2022/04/06 05:47:48;;;;;;;31.50;10.57;;;;;;;;;;5042340;28;20048;-76
2022/04/06 05:50:15;;;;;;;21.40;9.43;;;;;;;;;;5032756;28;20146;-76
2022/04/06 05:52:43;;;;;;;26.20;10.10;;;;;;;;;;5040513;28;20080;-77
2022/04/06 05:55:11;;;;;;;29.33;10.60;;;;;;;;;;5028672;28;20446;-79
2022/04/06 05:57:38;;;;;;;22.73;10.27;;;;;;;;;;5049361;28;20102;-79
2022/04/06 06:00:08;;;;;;;27.95;10.23;;;;;;;;;;5048184;28;20083;-80
2022/04/06 06:02:36;;;;;;;30.33;11.90;;;;;;;;;;5061207;28;20596;-79
2022/04/06 06:05:03;;;;;;;27.73;10.77;;;;;;;;;;5056482;28;20087;-79
2022/04/06 06:07:31;;;;;;;33.55;11.50;;;;;;;;;;5037107;28;20123;-79
2022/04/06 06:09:58;;;;;;;30.95;12.55;;;;;;;;;;5052558;28;20073;-80
2022/04/06 06:12:26;;;;;;;33.67;12.55;;;;;;;;;;5052550;28;20102;-78
2022/04/06 06:14:58;;;;;;;32.08;12.40;;;;;;;;;;5049852;28;20135;-79
2022/04/06 06:17:25;;;;;;;29.15;12.23;;;;;;;;;;5053848;28;20151;-79
2022/04/06 06:19:53;;;;;;;35.40;12.32;;;;;;;;;;5037005;28;20055;-79
2022/04/06 06:22:20;;;;;;;30.73;13.77;;;;;;;;;;5043241;28;20153;-79
2022/04/06 06:24:48;;;;;;;37.90;14.20;;;;;;;;;;5040425;28;20131;-79
2022/04/06 06:27:19;;;;;;;36.30;14.07;;;;;;;;;;5053301;28;21050;-79
2022/04/06 06:29:49;;;;;;;42.45;15.30;;;;;;;;;;5037534;28;20053;-78
2022/04/06 06:32:17;;;;;;;44.30;15.27;;;;;;;;;;5038222;28;20057;-79
2022/04/06 06:34:48;;;;;;;38.53;15.73;;;;;;;;;;5058960;28;20557;-78
2022/04/06 06:37:16;;;;;;;36.72;15.70;;;;;;;;;;5055737;28;20148;-78
2022/04/06 06:39:43;;;;;;;43.40;16.98;;;;;;;;;;5038021;28;20084;-78
2022/04/06 06:42:10;;;;;;;42.38;17.73;;;;;;;;;;5052581;28;20171;-78
2022/04/06 06:44:37;;;;;;;41.33;17.58;;;;;;;;;;5053958;28;20692;-78
2022/04/06 06:47:05;;;;;;;46.20;17.85;;;;;;;;;;5055966;28;20088;-79
2022/04/06 06:49:32;;;;;;;36.33;17.55;;;;;;;;;;5036316;28;20997;-79
2022/04/06 06:51:59;;;;;;;46.17;17.85;;;;;;;;;;5044935;28;20071;-79
2022/04/06 06:54:26;;;;;;;46.33;19.15;;;;;;;;;;5046591;28;20499;-79
2022/04/06 06:56:53;;;;;;;47.45;20.25;;;;;;;;;;5068162;28;20131;-80
2022/04/06 06:59:21;;;;;;;44.88;20.25;;;;;;;;;;5056749;28;20132;-79
2022/04/06 07:01:48;;;;;;;40.75;19.23;;;;;;;;;;5057062;28;20071;-79
2022/04/06 07:04:15;;;;;;;36.25;18.20;;;;;;;;;;5066582;28;20041;-79
2022/04/06 07:06:42;;;;;;;42.00;18.15;;;;;;;;;;5067944;28;20102;-78
2022/04/06 07:09:09;;;;;;;44.33;18.75;;;;;;;;;;5046604;28;20052;-79
2022/04/06 07:11:37;;;;;;;46.78;19.42;;;;;;;;;;5049375;28;20131;-79
2022/04/06 07:14:04;;;;;;;49.03;20.20;;;;;;;;;;5071640;28;20139;-80
2022/04/06 07:16:32;;;;;;;43.05;19.05;;;;;;;;;;5074165;28;20535;-80
2022/04/06 07:19:00;;;;;;;47.03;19.10;;;;;;;;;;5056760;28;20063;-80
2022/04/06 07:21:28;;;;;;;51.28;20.05;;;;;;;;;;5050752;28;20109;-80
2022/04/06 07:23:57;;;;;;;48.88;20.10;;;;;;;;;;5059343;28;20079;-81
2022/04/06 07:26:24;;;;;;;55.20;21.65;;;;;;;;;;5056393;28;20048;-80
2022/04/06 07:28:52;;;;;;;49.25;22.17;;;;;;;;;;5053708;28;20048;-79
2022/04/06 07:31:19;;;;;;;48.65;21.00;;;;;;;;;;5055871;28;21915;-80
2022/04/06 07:33:47;;;;;;;56.10;22.13;;;;;;;;;;5067664;28;20401;-80
2022/04/06 07:36:17;;;;;;;45.30;21.50;;;;;;;;;;5055238;28;20065;-79
2022/04/06 07:38:45;;;;;;;52.28;22.25;;;;;;;;;;5052073;28;20481;-79
2022/04/06 07:41:13;;;;;;;47.95;21.50;;;;;;;;;;5054799;28;20064;-79
2022/04/06 07:43:40;;;;;;;58.20;23.08;;;;;;;;;;5054382;28;20459;-77
2022/04/06 07:46:07;;;;;;;50.65;23.35;;;;;;;;;;5040581;28;20136;-78
2022/04/06 07:48:35;;;;;;;58.85;24.80;;;;;;;;;;5059384;28;20048;-77
2022/04/06 07:51:02;;;;;;;50.65;23.42;;;;;;;;;;5046470;28;20052;-78
2022/04/06 07:53:29;;;;;;;56.40;23.77;;;;;;;;;;5066458;28;20076;-77
2022/04/06 07:55:57;;;;;;;48.40;22.33;;;;;;;;;;5063000;28;20084;-78
2022/04/06 07:58:24;;;;;;;52.53;23.15;;;;;;;;;;5050898;28;20563;-78
2022/04/06 08:00:51;;;;;;;49.13;23.30;;;;;;;;;;5055146;28;20049;-78
2022/04/06 08:03:19;;;;;;;46.55;23.08;;;;;;;;;;5049459;28;20058;-77
2022/04/06 08:05:46;;;;;;;54.85;23.48;;;;;;;;;;5059513;28;20048;-77
2022/04/06 08:08:14;;;;;;;51.30;23.15;;;;;;;;;;5057774;28;20481;-77
2022/04/06 08:10:41;;;;;;;40.83;20.73;;;;;;;;;;5057255;28;20521;-80
2022/04/06 08:13:08;;;;;;;47.63;22.95;;;;;;;;;;5067265;28;20139;-80
2022/04/06 08:15:35;;;;;;;46.28;21.48;;;;;;;;;;5049086;28;20135;-84
2022/04/06 08:18:02;;;;;;;46.35;22.48;;;;;;;;;;5066719;28;20136;-84
2022/04/06 08:20:30;;;;;;;47.17;21.90;;;;;;;;;;5049490;28;20147;-84
2022/04/06 08:22:57;;;;;;;43.90;21.30;;;;;;;;;;5065917;28;20076;-82
2022/04/06 08:25:24;;;;;;;53.17;21.38;;;;;;;;;;5045892;28;20053;-82
2022/04/06 08:28:03;;;;;;;42.55;21.80;;;;;;;;;;5070075;28;20540;-83
2022/04/06 08:30:30;;;;;;;51.53;22.35;;;;;;;;;;5068902;28;20709;-81
2022/04/06 08:33:01;;;;;;;44.38;22.08;;;;;;;;;;5056983;28;20128;-81
2022/04/06 08:35:28;;;;;;;45.00;19.63;;;;;;;;;;5046868;28;20136;-82
2022/04/06 08:37:55;;;;;;;51.80;20.90;;;;;;;;;;5062462;28;20124;-82
2022/04/06 08:40:22;;;;;;;47.88;19.83;;;;;;;;;;5065987;28;20099;-78
2022/04/06 08:42:50;;;;;;;43.47;19.58;;;;;;;;;;5067204;28;20076;-80
2022/04/06 08:45:17;;;;;;;46.30;19.83;;;;;;;;;;5043916;28;20450;-81
2022/04/06 08:47:49;;;;;;;35.08;19.38;;;;;;;;;;5064102;28;20052;-80
2022/04/06 08:50:18;;;;;;;44.65;18.70;;;;;;;;;;5060328;28;20144;-80
2022/04/06 08:52:46;;;;;;;45.58;18.02;;;;;;;;;;5056884;28;20047;-80
2022/04/06 08:55:30;;;;;;;46.83;19.40;;;;;;;;;;5045027;28;20127;-80
2022/04/06 08:57:58;;;;;;;47.03;18.92;;;;;;;;;;5061055;28;20485;-80
2022/04/06 09:00:25;;;;;;;35.78;18.40;;;;;;;;;;5067923;28;20483;-80
2022/04/06 09:02:53;;;;;;;48.35;18.05;;;;;;;;;;5065508;28;20665;-80
2022/04/06 09:05:21;;;;;;;43.70;17.83;;;;;;;;;;5054676;28;20048;-80
2022/04/06 09:07:51;;;;;;;40.22;17.77;;;;;;;;;;5050159;28;20121;-81
2022/04/06 09:10:33;;;;;;;38.85;17.88;;;;;;;;;;5065957;28;20601;-80
2022/04/06 09:13:27;;;;;;;37.83;17.83;;;;;;;;;;5048752;28;20048;-81
2022/04/06 09:16:00;;;;;;;36.65;17.38;;;;;;;;;;5046194;28;20045;-80
2022/04/06 09:18:33;;;;;;;35.25;16.80;;;;;;;;;;5060586;28;20480;-80
2022/04/06 09:21:01;;;;;;;37.53;17.73;;;;;;;;;;5060289;28;20047;-76
2022/04/06 09:23:30;;;;;;;38.47;15.85;;;;;;;;;;5041250;28;20161;-76
2022/04/06 09:26:01;;;;;;;33.00;17.60;;;;;;;;;;5058392;28;20077;-76
2022/04/06 09:28:28;;;;;;;34.30;16.98;;;;;;;;;;5034682;28;20850;-76
2022/04/06 09:30:56;;;;;;;40.88;16.83;;;;;;;;;;5056093;28;20123;-77
2022/04/06 09:33:23;;;;;;;37.30;16.52;;;;;;;;;;5052121;28;20052;-76
2022/04/06 09:35:51;;;;;;;28.88;15.55;;;;;;;;;;5057560;28;20055;-76
2022/04/06 09:38:22;;;;;;;29.00;15.27;;;;;;;;;;5043709;28;20106;-76
2022/04/06 09:40:51;;;;;;;29.45;14.32;;;;;;;;;;5041891;28;20052;-76
2022/04/06 09:43:26;;;;;;;29.95;15.48;;;;;;;;;;5066715;28;20048;-76
2022/04/06 09:48:56;;;;;;;27.38;14.15;;;;;;;;;;5057462;28;20052;-76
2022/04/06 09:51:24;;;;;;;29.17;13.60;;;;;;;;;;5062893;28;20133;-76
2022/04/06 09:53:52;;;;;;;29.17;14.05;;;;;;;;;;5043908;28;20103;-76
2022/04/06 09:56:20;;;;;;;28.25;13.05;;;;;;;;;;5060214;28;20085;-76
2022/04/06 09:58:47;;;;;;;29.95;13.48;;;;;;;;;;5055588;28;20109;-76
2022/04/06 10:01:15;;;;;;;32.03;13.45;;;;;;;;;;5058703;28;20170;-76
2022/04/06 10:03:50;;;;;;;24.92;13.57;;;;;;;;;;5046279;28;20056;-76
2022/04/06 10:06:18;;;;;;;27.48;12.88;;;;;;;;;;5032639;28;20119;-76
2022/04/06 10:08:45;;;;;;;29.50;15.00;;;;;;;;;;5062605;28;20086;-76
2022/04/06 10:11:12;;;;;;;26.75;14.10;;;;;;;;;;5040489;28;20808;-76
2022/04/06 10:13:40;;;;;;;31.98;14.07;;;;;;;;;;5040013;28;20168;-76
2022/04/06 10:16:20;;;;;;;28.77;14.23;;;;;;;;;;5055081;28;20052;-76
2022/04/06 10:18:50;;;;;;;28.58;13.02;;;;;;;;;;5065344;28;20059;-76
2022/04/06 10:21:18;;;;;;;28.67;12.77;;;;;;;;;;5036957;28;20056;-76
2022/04/06 10:23:54;;;;;;;26.70;12.95;;;;;;;;;;5044464;28;20052;-76
2022/04/06 10:26:31;;;;;;;27.73;13.68;;;;;;;;;;5065322;28;20049;-75
2022/04/06 10:28:58;;;;;;;28.40;13.55;;;;;;;;;;5044546;28;20040;-76
2022/04/06 10:31:29;;;;;;;22.90;12.90;;;;;;;;;;5056758;28;20076;-76
2022/04/06 10:34:16;;;;;;;26.83;14.30;;;;;;;;;;5054720;28;20092;-75
2022/04/06 10:36:46;;;;;;;28.17;12.98;;;;;;;;;;5039760;28;20106;-76
2022/04/06 10:39:13;;;;;;;22.10;12.63;;;;;;;;;;5060437;28;20076;-76
2022/04/06 10:41:59;;;;;;;31.88;14.63;;;;;;;;;;5061411;28;20135;-76
2022/04/06 10:44:53;;;;;;;28.48;13.93;;;;;;;;;;5063171;28;20629;-76
2022/04/06 10:47:21;;;;;;;28.40;14.57;;;;;;;;;;5047598;28;20049;-76
2022/04/06 10:50:07;;;;;;;26.67;13.25;;;;;;;;;;5046267;28;20139;-76
2022/04/06 10:52:35;;;;;;;30.05;14.40;;;;;;;;;;5042777;28;20658;-76
2022/04/06 10:55:12;;;;;;;33.20;13.20;;;;;;;;;;5060120;28;20148;-76
2022/04/06 10:57:56;;;;;;;25.08;12.73;;;;;;;;;;5046969;28;20102;-76
2022/04/06 11:00:25;;;;;;;23.50;13.27;;;;;;;;;;5060337;28;20079;-76
2022/04/06 11:02:53;;;;;;;26.08;13.30;;;;;;;;;;5060898;28;20137;-76
2022/04/06 11:05:39;;;;;;;30.42;13.27;;;;;;;;;;5055541;28;20139;-76
2022/04/06 11:11:13;;;;;;;21.40;12.52;;;;;;;;;;5060631;28;20393;-76
2022/04/06 11:13:41;;;;;;;24.92;12.77;;;;;;;;;;5054955;28;20045;-76
2022/04/06 11:16:08;;;;;;;23.88;11.80;;;;;;;;;;5059852;28;20548;-76
2022/04/06 11:18:49;;;;;;;27.60;13.52;;;;;;;;;;5048684;28;20049;-76
2022/04/06 11:21:17;;;;;;;24.42;12.13;;;;;;;;;;5040090;28;20113;-76
2022/04/06 11:23:44;;;;;;;23.55;13.05;;;;;;;;;;5055030;28;20126;-76
2022/04/06 11:26:12;;;;;;;31.90;12.02;;;;;;;;;;5035355;28;20106;-76
2022/04/06 11:28:39;;;;;;;25.25;11.60;;;;;;;;;;5064701;28;20055;-76
2022/04/06 11:31:07;;;;;;;24.40;12.30;;;;;;;;;;5061409;28;20151;-76
2022/04/06 11:33:39;;;;;;;29.15;11.68;;;;;;;;;;5058670;28;20094;-76
2022/04/06 11:36:13;;;;;;;28.90;11.65;;;;;;;;;;5043131;28;20052;-76
2022/04/06 11:38:40;;;;;;;24.08;11.10;;;;;;;;;;5046513;28;20564;-76
2022/04/06 11:41:10;;;;;;;24.00;10.60;;;;;;;;;;5060727;28;20125;-75
2022/04/06 11:43:40;;;;;;;21.70;9.77;;;;;;;;;;5068565;28;20137;-75
2022/04/06 11:46:07;;;;;;;21.15;10.13;;;;;;;;;;5065007;28;20159;-75
2022/04/06 11:48:39;;;;;;;26.63;10.68;;;;;;;;;;5067374;28;20725;-75
2022/04/06 11:51:06;;;;;;;22.15;8.98;;;;;;;;;;5066925;28;20496;-75
2022/04/06 11:53:34;;;;;;;19.08;9.95;;;;;;;;;;5067391;28;20813;-75
2022/04/06 11:56:02;;;;;;;24.20;10.05;;;;;;;;;;5064178;28;20048;-76
2022/04/06 11:58:32;;;;;;;19.38;9.55;;;;;;;;;;5059066;28;20129;-75
2022/04/06 12:01:09;;;;;;;20.52;9.40;;;;;;;;;;5059421;28;20053;-75
2022/04/06 12:03:37;;;;;;;19.02;9.27;;;;;;;;;;5064589;28;20175;-76
2022/04/06 12:06:06;;;;;;;20.63;9.18;;;;;;;;;;5062141;28;20519;-76
2022/04/06 12:08:34;;;;;;;19.52;9.20;;;;;;;;;;5040213;28;20098;-76
2022/04/06 12:11:02;;;;;;;18.35;9.45;;;;;;;;;;5041141;28;20041;-75
2022/04/06 12:13:30;;;;;;;15.45;9.18;;;;;;;;;;5030634;28;20102;-76
2022/04/06 12:15:59;;;;;;;15.45;8.82;;;;;;;;;;5047982;28;20047;-75
2022/04/06 12:18:27;;;;;;;20.02;8.73;;;;;;;;;;5065435;28;20060;-75
2022/04/06 12:20:55;;;;;;;19.10;8.35;;;;;;;;;;5041012;28;20458;-76
2022/04/06 12:23:24;;;;;;;13.15;7.82;;;;;;;;;;5050686;28;20040;-75
2022/04/06 12:25:56;;;;;;;18.85;8.77;;;;;;;;;;5062784;28;20117;-76
2022/04/06 12:28:24;;;;;;;18.40;8.27;;;;;;;;;;5061191;28;20050;-75
2022/04/06 12:30:57;;;;;;;22.15;9.60;;;;;;;;;;5048140;28;20044;-76
2022/04/06 12:33:43;;;;;;;18.33;7.50;;;;;;;;;;5043157;28;20156;-75
2022/04/06 12:36:12;;;;;;;14.05;7.38;;;;;;;;;;5058928;28;20131;-76
2022/04/06 12:38:40;;;;;;;16.40;7.38;;;;;;;;;;5066423;28;20080;-76
2022/04/06 12:41:09;;;;;;;17.83;7.72;;;;;;;;;;5042102;28;20144;-76
2022/04/06 12:43:53;;;;;;;14.02;8.05;;;;;;;;;;5041403;28;20048;-75
2022/04/06 12:46:36;;;;;;;17.58;6.72;;;;;;;;;;5033120;28;20060;-76
2022/04/06 12:49:22;;;;;;;21.25;7.03;;;;;;;;;;5066695;28;20545;-76
2022/04/06 12:52:02;;;;;;;16.02;6.97;;;;;;;;;;5063233;28;20103;-74
2022/04/06 12:54:33;;;;;;;11.32;6.13;;;;;;;;;;5065042;28;20083;-74
2022/04/06 12:57:03;;;;;;;21.52;7.90;;;;;;;;;;5037935;28;20053;-76
2022/04/06 12:59:41;;;;;;;10.32;5.90;;;;;;;;;;5058651;28;20049;-76
2022/04/06 13:02:21;;;;;;;12.40;5.90;;;;;;;;;;5045610;28;20139;-75
2022/04/06 13:04:49;;;;;;;12.27;6.13;;;;;;;;;;5061589;28;20052;-75
2022/04/06 13:07:16;;;;;;;15.95;6.05;;;;;;;;;;5039417;28;20045;-76
2022/04/06 13:10:03;;;;;;;13.27;6.05;;;;;;;;;;5062245;28;20079;-76
2022/04/06 13:12:31;;;;;;;13.45;5.20;;;;;;;;;;5042308;28;20076;-76
2022/04/06 13:15:00;;;;;;;18.02;5.75;;;;;;;;;;5038099;28;20076;-75
2022/04/06 13:17:27;;;;;;;10.38;5.15;;;;;;;;;;5042002;28;20110;-74
2022/04/06 13:19:54;;;;;;;8.65;5.50;;;;;;;;;;5052577;28;20084;-76
2022/04/06 13:22:22;;;;;;;15.85;5.43;;;;;;;;;;5059201;28;20123;-77
2022/04/06 13:24:49;;;;;;;17.58;5.65;;;;;;;;;;5064273;28;20091;-75
2022/04/06 13:27:16;;;;;;;15.40;5.47;;;;;;;;;;5065094;28;20107;-76
2022/04/06 13:29:44;;;;;;;13.23;5.75;;;;;;;;;;5067316;28;20084;-76
2022/04/06 13:32:12;;;;;;;11.45;4.85;;;;;;;;;;5058680;28;20076;-76
2022/04/06 13:34:39;;;;;;;10.73;4.82;;;;;;;;;;5040282;28;20055;-73
2022/04/06 13:37:09;;;;;;;12.48;5.22;;;;;;;;;;5042972;28;20504;-75
2022/04/06 13:39:37;;;;;;;9.40;4.68;;;;;;;;;;5059172;28;20060;-79
2022/04/06 13:42:09;;;;;;;12.13;5.32;;;;;;;;;;5055294;28;20072;-80
2022/04/06 13:44:36;;;;;;;12.70;4.47;;;;;;;;;;5041887;28;20778;-78
2022/04/06 13:47:05;;;;;;;14.60;5.10;;;;;;;;;;5064042;28;20118;-78
2022/04/06 13:49:33;;;;;;;13.27;4.93;;;;;;;;;;5045555;28;20132;-76
2022/04/06 13:52:03;;;;;;;9.05;4.72;;;;;;;;;;5036715;28;20122;-78
2022/04/06 13:54:31;;;;;;;11.68;6.20;;;;;;;;;;5064379;28;20739;-77
2022/04/06 13:56:59;;;;;;;13.02;6.07;;;;;;;;;;5038584;28;20060;-79
2022/04/06 13:59:26;;;;;;;10.02;5.00;;;;;;;;;;5056560;28;20048;-79
2022/04/06 14:01:54;;;;;;;12.77;5.60;;;;;;;;;;5063740;28;20072;-78
2022/04/06 14:04:21;;;;;;;15.38;5.68;;;;;;;;;;5064239;28;20072;-77
2022/04/06 14:06:49;;;;;;;16.73;6.03;;;;;;;;;;5044250;28;20127;-77
2022/04/06 14:09:18;;;;;;;13.55;6.55;;;;;;;;;;5041179;28;20118;-80
2022/04/06 14:11:46;;;;;;;15.13;6.63;;;;;;;;;;5065201;28;20098;-77
2022/04/06 14:14:14;;;;;;;13.85;6.47;;;;;;;;;;5046805;28;20044;-78
2022/04/06 14:16:41;;;;;;;32.08;7.43;;;;;;;;;;5058409;28;20090;-77
2022/04/06 14:19:09;;;;;;;12.55;6.40;;;;;;;;;;5063581;28;20040;-78
2022/04/06 14:21:38;;;;;;;14.80;6.68;;;;;;;;;;5064995;28;20091;-78
2022/04/06 14:24:06;;;;;;;10.88;6.95;;;;;;;;;;5064982;28;20439;-77
2022/04/06 14:26:34;;;;;;;11.82;7.10;;;;;;;;;;5065072;28;20084;-76
2022/04/06 14:29:02;;;;;;;16.75;7.57;;;;;;;;;;5058443;28;20091;-77
2022/04/06 14:31:30;;;;;;;17.17;7.22;;;;;;;;;;5049714;28;20564;-77
2022/04/06 14:33:58;;;;;;;17.95;7.38;;;;;;;;;;5064161;28;20049;-76
2022/04/06 14:36:25;;;;;;;14.38;7.47;;;;;;;;;;5064882;28;20044;-76
2022/04/06 14:38:53;;;;;;;17.50;6.78;;;;;;;;;;5044063;28;20107;-77
2022/04/06 14:41:21;;;;;;;14.43;6.97;;;;;;;;;;5046787;28;20052;-77
2022/04/06 14:43:49;;;;;;;14.00;6.72;;;;;;;;;;5053981;28;20049;-77
2022/04/06 14:46:16;;;;;;;15.82;7.72;;;;;;;;;;5063568;28;20061;-77
2022/04/06 14:48:44;;;;;;;17.13;7.20;;;;;;;;;;5066882;28;20040;-76
2022/04/06 14:51:14;;;;;;;16.90;7.30;;;;;;;;;;5051502;28;20048;-77
2022/04/06 14:53:46;;;;;;;14.45;6.25;;;;;;;;;;5044265;28;20143;-77
2022/04/06 14:56:14;;;;;;;12.88;6.35;;;;;;;;;;5051996;28;20806;-77